createdAt,value
2019-01-30T00:01:45.947Z,20.80
2019-01-30T00:04:22.832Z,21.03
2019-01-30T00:06:57.620Z,22.67
2019-01-30T00:09:32.459Z,22.07
2019-01-30T00:12:06.905Z,21.57
2019-01-30T00:14:41.466Z,20.93
2019-01-30T00:17:17.137Z,22.07
2019-01-30T00:19:51.963Z,22.20
2019-01-30T00:22:28.923Z,21.07
2019-01-30T00:25:03.748Z,20.87
2019-01-30T00:27:38.614Z,20.33
2019-01-30T00:30:14.330Z,21.87
2019-01-30T00:32:49.908Z,21.40
2019-01-30T00:35:41.867Z,21.53
2019-01-30T00:38:16.799Z,21.73
2019-01-30T00:40:51.932Z,22.67
2019-01-30T00:43:31.722Z,21.70
2019-01-30T00:46:06.418Z,21.37
2019-01-30T00:48:59.660Z,22.20
2019-01-30T00:51:34.563Z,21.60
2019-01-30T00:54:09.703Z,20.90
2019-01-30T00:56:44.204Z,20.67
2019-01-30T00:59:18.750Z,21.13
2019-01-30T01:01:53.277Z,22.00
2019-01-30T01:04:28.032Z,21.80
2019-01-30T01:07:02.878Z,22.20
2019-01-30T01:09:37.561Z,20.80
2019-01-30T01:12:12.471Z,21.70
2019-01-30T01:14:47.170Z,22.67
2019-01-30T01:17:22.285Z,21.43
2019-01-30T01:19:56.767Z,22.13
2019-01-30T01:22:31.486Z,23.73
2019-01-30T01:25:06.079Z,23.90
2019-01-30T01:27:40.471Z,23.70
2019-01-30T01:30:24.963Z,23.60
2019-01-30T01:32:53.850Z,22.90
2019-01-30T01:35:29.285Z,23.83
2019-01-30T01:38:04.148Z,22.90
2019-01-30T01:40:39.133Z,23.37
2019-01-30T01:43:13.802Z,24.13
2019-01-30T01:45:48.454Z,23.20
2019-01-30T01:48:23.374Z,23.27
2019-01-30T01:50:59.244Z,23.67
2019-01-30T01:53:34.346Z,22.63
2019-01-30T01:56:26.572Z,23.53
2019-01-30T01:59:01.457Z,22.60
2019-01-30T02:01:36.149Z,24.45
2019-01-30T02:04:11.188Z,23.10
2019-01-30T02:06:46.034Z,23.35
2019-01-30T02:09:20.570Z,22.40
2019-01-30T02:11:55.514Z,23.00
2019-01-30T02:14:29.743Z,22.47
2019-01-30T02:17:23.756Z,23.73
2019-01-30T02:19:59.396Z,23.43
2019-01-30T02:22:35.530Z,22.93
2019-01-30T02:25:11.144Z,21.23
2019-01-30T02:27:46.196Z,22.25
2019-01-30T02:30:25.012Z,21.87
2019-01-30T02:32:59.668Z,19.90
2019-01-30T02:35:34.191Z,21.60
2019-01-30T02:38:08.546Z,21.77
2019-01-30T02:40:45.128Z,21.07
2019-01-30T02:43:21.335Z,20.60
2019-01-30T02:45:55.994Z,19.27
2019-01-30T02:48:30.616Z,19.67
2019-01-30T02:51:05.169Z,20.73
2019-01-30T02:53:40.119Z,20.75
2019-01-30T02:56:14.632Z,20.70
2019-01-30T02:58:50.127Z,20.37
2019-01-30T03:01:24.512Z,20.75
2019-01-30T03:04:05.546Z,20.40
2019-01-30T03:06:39.707Z,20.32
2019-01-30T03:09:14.434Z,20.90
2019-01-30T03:11:49.609Z,20.48
2019-01-30T03:14:24.423Z,20.50
2019-01-30T03:16:59.544Z,20.70
2019-01-30T03:19:34.446Z,21.57
2019-01-30T03:22:09.171Z,21.43
2019-01-30T03:24:43.813Z,21.27
2019-01-30T03:27:18.637Z,21.43
2019-01-30T03:30:14.363Z,21.42
2019-01-30T03:32:48.362Z,21.13
2019-01-30T03:35:23.607Z,19.90
2019-01-30T03:37:57.920Z,21.07
2019-01-30T03:40:32.808Z,22.23
2019-01-30T03:43:08.002Z,22.67
2019-01-30T03:45:43.275Z,23.43
2019-01-30T03:48:18.252Z,22.90
2019-01-30T03:50:52.731Z,21.60
2019-01-30T03:53:27.815Z,21.35
2019-01-30T03:56:02.489Z,21.73
2019-01-30T03:58:37.481Z,21.20
2019-01-30T04:01:11.600Z,22.35
2019-01-30T04:03:47.006Z,22.13
2019-01-30T04:06:22.097Z,22.95
2019-01-30T04:08:56.609Z,22.13
2019-01-30T04:11:31.112Z,20.10
2019-01-30T04:14:05.639Z,20.90
2019-01-30T04:16:43.329Z,21.00
2019-01-30T04:19:17.798Z,21.20
2019-01-30T04:21:52.531Z,21.57
2019-01-30T04:24:28.307Z,22.80
2019-01-30T04:27:02.908Z,22.00
2019-01-30T04:29:37.243Z,22.55
2019-01-30T04:32:13.248Z,22.95
2019-01-30T04:34:47.896Z,21.80
2019-01-30T04:37:22.768Z,20.62
2019-01-30T04:40:16.709Z,21.68
2019-01-30T04:42:51.807Z,21.12
2019-01-30T04:45:27.715Z,20.95
2019-01-30T04:48:03.833Z,20.62
2019-01-30T04:50:41.984Z,21.60
2019-01-30T04:53:16.782Z,20.80
2019-01-30T04:55:51.435Z,20.12
2019-01-30T04:58:26.324Z,20.50
2019-01-30T05:01:00.553Z,20.90
2019-01-30T05:03:35.241Z,20.50
2019-01-30T05:06:09.998Z,21.13
2019-01-30T05:08:44.483Z,21.40
2019-01-30T05:11:19.402Z,21.60
2019-01-30T05:13:54.177Z,21.77
2019-01-30T05:16:28.836Z,20.75
2019-01-30T05:19:03.303Z,21.30
2019-01-30T05:21:38.569Z,20.80
2019-01-30T05:24:13.271Z,21.10
2019-01-30T05:26:48.520Z,21.07
2019-01-30T05:29:23.496Z,21.30
2019-01-30T05:32:01.398Z,21.10
2019-01-30T05:34:34.251Z,22.10
2019-01-30T05:37:09.924Z,21.25
2019-01-30T05:39:44.348Z,22.47
2019-01-30T05:42:18.646Z,21.60
2019-01-30T05:44:53.248Z,23.27
2019-01-30T05:47:46.999Z,23.02
2019-01-30T05:50:21.750Z,22.23
2019-01-30T05:52:56.377Z,21.77
2019-01-30T05:55:31.483Z,24.37
2019-01-30T05:58:05.573Z,23.63
2019-01-30T06:00:45.713Z,22.85
2019-01-30T06:03:20.195Z,23.05
2019-01-30T06:05:55.160Z,24.10
2019-01-30T06:08:29.801Z,23.92
2019-01-30T06:11:04.777Z,24.72
2019-01-30T06:13:39.284Z,23.83
2019-01-30T06:16:14.437Z,23.30
2019-01-30T06:18:49.186Z,24.37
2019-01-30T06:21:24.276Z,24.63
2019-01-30T06:23:59.849Z,24.23
2019-01-30T06:26:35.069Z,25.43
2019-01-30T06:29:09.744Z,23.47
2019-01-30T06:31:44.727Z,23.42
2019-01-30T06:34:19.224Z,24.45
2019-01-30T06:36:54.362Z,24.57
2019-01-30T06:39:28.808Z,23.32
2019-01-30T06:42:03.573Z,24.52
2019-01-30T06:44:38.245Z,24.32
2019-01-30T06:47:12.911Z,23.18
2019-01-30T06:49:47.647Z,23.00
2019-01-30T06:52:22.251Z,23.90
2019-01-30T06:55:15.707Z,22.95
2019-01-30T06:57:50.548Z,24.23
2019-01-30T07:00:26.464Z,24.65
2019-01-30T07:03:02.034Z,23.18
2019-01-30T07:05:36.913Z,23.50
2019-01-30T07:08:11.711Z,24.07
2019-01-30T07:10:46.377Z,24.07
2019-01-30T07:13:20.971Z,24.10
2019-01-30T07:15:55.718Z,24.52
2019-01-30T07:18:30.021Z,23.98
2019-01-30T07:21:05.266Z,24.92
2019-01-30T07:23:40.191Z,23.35
2019-01-30T07:26:16.279Z,24.00
2019-01-30T07:28:50.944Z,23.65
2019-01-30T07:31:25.070Z,23.92
2019-01-30T07:33:59.440Z,25.10
2019-01-30T07:36:34.370Z,24.73
2019-01-30T07:39:11.594Z,25.20
2019-01-30T07:41:46.080Z,24.50
2019-01-30T07:44:21.088Z,25.08
2019-01-30T07:47:15.341Z,24.57
2019-01-30T07:49:57.556Z,24.95
2019-01-30T07:52:32.802Z,24.60
2019-01-30T07:55:08.837Z,23.70
2019-01-30T07:57:43.119Z,24.65
2019-01-30T08:00:23.395Z,25.00
2019-01-30T08:03:00.525Z,24.40
2019-01-30T08:05:54.334Z,23.57
2019-01-30T08:08:29.015Z,25.50
2019-01-30T08:11:03.842Z,24.95
2019-01-30T08:13:38.734Z,24.65
2019-01-30T08:16:13.723Z,24.50
2019-01-30T08:18:48.347Z,24.70
2019-01-30T08:21:23.422Z,24.65
2019-01-30T08:23:58.278Z,24.02
2019-01-30T08:26:33.718Z,25.25
2019-01-30T08:29:08.401Z,25.30
2019-01-30T08:31:43.522Z,26.20
2019-01-30T08:34:18.122Z,25.15
2019-01-30T08:36:53.810Z,25.95
2019-01-30T08:39:28.168Z,25.17
2019-01-30T08:42:02.706Z,26.25
2019-01-30T08:44:46.687Z,26.00
2019-01-30T08:47:13.277Z,26.90
2019-01-30T08:49:48.059Z,27.40
2019-01-30T08:52:23.043Z,26.93
2019-01-30T08:54:57.918Z,28.87
2019-01-30T08:57:53.572Z,27.37
2019-01-30T09:00:30.053Z,28.00
2019-01-30T09:03:14.188Z,27.50
2019-01-30T09:05:41.207Z,27.07
2019-01-30T09:08:16.019Z,28.73
2019-01-30T09:10:51.736Z,28.42
2019-01-30T09:13:26.793Z,28.53
2019-01-30T09:16:03.621Z,29.18
2019-01-30T09:18:38.571Z,29.45
2019-01-30T09:21:13.112Z,29.23
2019-01-30T09:23:47.552Z,29.35
2019-01-30T09:26:22.252Z,30.60
2019-01-30T09:28:56.431Z,29.50
2019-01-30T09:31:31.319Z,29.30
2019-01-30T09:34:06.024Z,29.95
2019-01-30T09:36:59.333Z,30.32
2019-01-30T09:39:34.055Z,28.87
2019-01-30T09:42:08.487Z,30.02
2019-01-30T09:44:43.347Z,30.27
2019-01-30T09:47:17.917Z,29.45
2019-01-30T10:01:52.855Z,27.25
2019-01-30T10:04:51.602Z,27.90
2019-01-30T10:07:25.553Z,29.37
2019-01-30T10:10:00.533Z,30.52
2019-01-30T10:12:35.007Z,30.57
2019-01-30T10:15:10.216Z,28.87
2019-01-30T10:17:45.735Z,28.27
2019-01-30T10:20:22.427Z,28.45
2019-01-30T10:22:56.960Z,27.93
2019-01-30T10:25:31.799Z,28.12
2019-01-30T10:28:15.872Z,28.17
2019-01-30T10:30:46.707Z,27.32
2019-01-30T10:33:21.447Z,28.67
2019-01-30T10:35:56.810Z,28.27
2019-01-30T10:38:50.522Z,28.73
2019-01-30T10:41:25.302Z,26.93
2019-01-30T10:44:00.140Z,27.03
2019-01-30T10:46:34.750Z,26.95
2019-01-30T10:49:09.086Z,27.25
2019-01-30T10:51:44.411Z,28.10
2019-01-30T10:54:21.160Z,27.65
2019-01-30T10:56:58.739Z,28.02
2019-01-30T10:59:40.092Z,26.30
2019-01-30T11:02:15.728Z,27.15
2019-01-30T11:04:50.372Z,26.82
2019-01-30T11:07:25.631Z,28.05
2019-01-30T11:10:00.395Z,26.48
2019-01-30T11:12:35.120Z,27.05
2019-01-30T11:15:10.476Z,26.93
2019-01-30T11:17:46.372Z,28.07
2019-01-30T11:20:22.252Z,27.15
2019-01-30T11:22:57.714Z,27.98
2019-01-30T11:25:34.249Z,27.87
2019-01-30T11:28:09.017Z,26.02
2019-01-30T11:30:43.648Z,25.37
2019-01-30T11:33:20.867Z,25.08
2019-01-30T11:35:55.395Z,25.32
2019-01-30T11:38:32.578Z,24.53
2019-01-30T11:41:28.338Z,25.88
2019-01-30T11:44:05.712Z,25.40
2019-01-30T11:46:40.598Z,24.67
2019-01-30T11:49:15.548Z,24.47
2019-01-30T11:51:50.034Z,23.90
2019-01-30T11:54:24.940Z,25.07
2019-01-30T11:56:59.789Z,25.33
2019-01-30T11:59:34.569Z,23.57
2019-01-30T12:02:09.260Z,24.23
2019-01-30T12:04:43.951Z,25.30
2019-01-30T12:07:18.747Z,24.93
2019-01-30T12:09:55.849Z,23.83
2019-01-30T12:12:29.630Z,24.80
2019-01-30T12:15:04.320Z,25.20
2019-01-30T12:17:56.521Z,24.60
2019-01-30T12:20:31.442Z,22.70
2019-01-30T12:23:05.856Z,23.50
2019-01-30T12:26:00.192Z,24.10
2019-01-30T12:28:37.305Z,24.20
2019-01-30T12:31:11.963Z,24.57
2019-01-30T12:33:46.605Z,23.83
2019-01-30T12:36:21.659Z,24.37
2019-01-30T12:38:56.239Z,24.20
2019-01-30T12:41:30.953Z,25.17
2019-01-30T12:44:05.938Z,24.20
2019-01-30T12:46:40.509Z,23.70
2019-01-30T12:49:15.297Z,25.13
2019-01-30T12:51:49.487Z,24.50
2019-01-30T12:54:24.301Z,23.17
2019-01-30T12:56:58.631Z,24.33
2019-01-30T12:59:33.364Z,24.07
2019-01-30T13:02:08.012Z,24.27
2019-01-30T13:04:43.215Z,24.60
2019-01-30T13:07:18.222Z,25.00
2019-01-30T13:09:52.771Z,23.70
2019-01-30T13:12:27.869Z,24.37
2019-01-30T13:15:02.507Z,25.93
2019-01-30T13:17:37.205Z,25.13
2019-01-30T13:20:15.694Z,25.10
2019-01-30T13:22:50.274Z,24.33
2019-01-30T13:25:27.150Z,25.20
2019-01-30T13:28:01.338Z,23.60
2019-01-30T13:30:37.350Z,25.77
2019-01-30T13:33:13.238Z,25.87
2019-01-30T13:35:48.362Z,24.70
2019-01-30T13:38:22.643Z,25.53
2019-01-30T13:40:59.854Z,25.83
2019-01-30T13:43:34.848Z,25.50
2019-01-30T13:46:09.329Z,26.33
2019-01-30T13:48:44.104Z,25.80
2019-01-30T13:51:19.014Z,26.00
2019-01-30T13:53:53.493Z,26.47
2019-01-30T13:56:28.333Z,25.77
2019-01-30T13:59:02.712Z,24.93
2019-01-30T14:01:56.846Z,25.47
2019-01-30T14:04:30.779Z,24.60
2019-01-30T14:07:05.086Z,26.77
2019-01-30T14:09:40.645Z,26.33
2019-01-30T14:12:15.180Z,27.63
2019-01-30T14:14:50.138Z,26.40
2019-01-30T14:17:24.877Z,27.03
2019-01-30T14:20:03.072Z,27.27
2019-01-30T14:22:37.593Z,25.83
2019-01-30T14:25:13.125Z,26.50
2019-01-30T14:27:47.424Z,27.20
2019-01-30T14:30:27.574Z,25.53
2019-01-30T14:33:02.325Z,27.27
2019-01-30T14:35:38.985Z,26.43
2019-01-30T14:38:13.835Z,26.67
2019-01-30T14:40:48.741Z,27.23
2019-01-30T14:43:23.508Z,26.10
2019-01-30T14:45:58.276Z,27.87
2019-01-30T14:48:34.461Z,27.13
2019-01-30T14:51:09.121Z,27.33
2019-01-30T14:53:43.855Z,26.93
2019-01-30T14:56:18.321Z,25.80
2019-01-30T14:58:53.579Z,26.50
2019-01-30T15:01:30.052Z,26.53
2019-01-30T15:04:05.349Z,27.30
2019-01-30T15:06:39.758Z,27.13
2019-01-30T15:09:34.453Z,27.93
2019-01-30T15:12:09.198Z,27.40
2019-01-30T15:14:43.936Z,27.03
2019-01-30T15:17:18.724Z,27.50
2019-01-30T15:19:53.540Z,26.63
2019-01-30T15:22:27.905Z,27.17
2019-01-30T15:25:02.332Z,26.90
2019-01-30T15:27:37.250Z,28.80
2019-01-30T15:30:14.126Z,27.57
2019-01-30T15:32:48.908Z,26.37
2019-01-30T15:35:33.239Z,27.67
2019-01-30T15:38:00.094Z,28.73
2019-01-30T15:40:34.875Z,28.43
2019-01-30T15:43:09.945Z,27.57
2019-01-30T15:45:45.317Z,29.67
2019-01-30T15:48:19.771Z,28.50
2019-01-30T15:50:54.821Z,29.20
2019-01-30T15:53:30.242Z,29.77
2019-01-30T15:56:04.810Z,29.33
2019-01-30T15:58:39.401Z,29.33
2019-01-30T16:01:24.456Z,28.80
2019-01-30T16:03:58.864Z,28.30
2019-01-30T16:06:33.621Z,29.40
2019-01-30T16:09:10.919Z,30.03
2019-01-30T16:11:45.833Z,28.50
2019-01-30T16:14:21.118Z,29.30
2019-01-30T16:16:55.940Z,28.63
2019-01-30T16:19:30.329Z,29.33
2019-01-30T16:22:05.121Z,29.53
2019-01-30T16:24:39.976Z,29.33
2019-01-30T16:27:14.812Z,28.70
2019-01-30T16:29:49.175Z,28.53
2019-01-30T16:32:24.495Z,28.13
2019-01-30T16:34:58.788Z,29.10
2019-01-30T16:37:33.790Z,30.10
2019-01-30T16:40:09.678Z,28.00
2019-01-30T16:42:44.310Z,28.47
2019-01-30T16:45:20.479Z,29.80
2019-01-30T16:48:14.108Z,29.20
2019-01-30T16:50:48.614Z,27.33
2019-01-30T16:53:24.407Z,28.10
2019-01-30T16:55:59.228Z,28.40
2019-01-30T16:58:34.095Z,27.00
2019-01-30T17:01:09.076Z,28.10
2019-01-30T17:03:44.334Z,28.87
2019-01-30T17:06:19.575Z,27.27
2019-01-30T17:08:54.489Z,27.43
2019-01-30T17:11:30.034Z,26.33
2019-01-30T17:14:04.929Z,27.63
2019-01-30T17:16:40.111Z,27.47
2019-01-30T17:19:34.098Z,26.57
2019-01-30T17:22:09.855Z,26.30
2019-01-30T17:24:44.412Z,26.20
2019-01-30T17:27:19.116Z,25.35
2019-01-30T17:29:54.212Z,26.47
2019-01-30T17:32:28.916Z,25.23
2019-01-30T17:35:03.633Z,24.13
2019-01-30T17:37:38.217Z,24.87
2019-01-30T17:40:15.540Z,24.67
2019-01-30T17:42:50.506Z,22.93
2019-01-30T17:45:25.077Z,23.07
2019-01-30T17:47:59.500Z,24.07
2019-01-30T17:50:34.192Z,23.07
2019-01-30T17:53:09.322Z,23.37
2019-01-30T17:55:43.890Z,23.00
2019-01-30T17:58:19.675Z,22.83
2019-01-30T18:01:05.300Z,21.63
2019-01-30T18:03:50.607Z,22.70
2019-01-30T18:09:20.020Z,21.30
2019-01-30T18:11:54.435Z,21.60
2019-01-30T18:14:50.069Z,21.40
2019-01-30T18:17:27.128Z,20.97
2019-01-30T18:20:01.306Z,20.93
2019-01-30T18:22:36.243Z,21.30
2019-01-30T18:25:11.818Z,19.93
2019-01-30T18:27:46.460Z,20.83
2019-01-30T18:30:22.086Z,19.90
2019-01-30T18:32:56.883Z,20.43
2019-01-30T18:35:32.092Z,19.80
2019-01-30T18:38:07.710Z,19.20
2019-01-30T18:40:42.500Z,18.35
2019-01-30T18:43:18.113Z,19.00
2019-01-30T18:45:53.310Z,19.13
2019-01-30T18:48:45.739Z,19.87
2019-01-30T18:51:20.908Z,18.87
2019-01-30T18:53:55.728Z,18.53
2019-01-30T18:56:30.323Z,18.63
2019-01-30T18:59:04.953Z,19.27
2019-01-30T19:01:39.761Z,19.07
2019-01-30T19:04:15.055Z,18.13
2019-01-30T19:06:52.498Z,17.93
2019-01-30T19:09:25.811Z,18.57
2019-01-30T19:12:00.312Z,17.60
2019-01-30T19:14:34.931Z,16.80
2019-01-30T19:17:10.175Z,18.10
2019-01-30T19:19:45.251Z,17.80
2019-01-30T19:22:20.589Z,17.37
2019-01-30T19:24:55.505Z,18.43
2019-01-30T19:27:29.701Z,17.33
2019-01-30T19:30:04.549Z,18.13
2019-01-30T19:32:39.461Z,17.67
2019-01-30T19:35:33.073Z,17.27
2019-01-30T19:38:08.858Z,16.57
2019-01-30T19:40:44.347Z,17.80
2019-01-30T19:43:18.944Z,17.53
2019-01-30T19:45:55.334Z,17.10
2019-01-30T19:48:29.955Z,17.53
2019-01-30T19:51:04.987Z,17.73
2019-01-30T19:53:39.540Z,16.40
2019-01-30T19:56:14.347Z,16.30
2019-01-30T19:58:49.029Z,16.47
2019-01-30T20:01:24.227Z,17.77
2019-01-30T20:03:58.665Z,17.00
2019-01-30T20:06:33.744Z,17.00
2019-01-30T20:09:10.900Z,17.70
2019-01-30T20:11:45.557Z,17.37
2019-01-30T20:14:20.275Z,17.03
2019-01-30T20:16:57.044Z,17.47
2019-01-30T20:19:31.569Z,17.60
2019-01-30T20:22:06.334Z,17.03
2019-01-30T20:24:41.141Z,16.53
2019-01-30T20:27:15.825Z,17.37
2019-01-30T20:29:50.711Z,17.40
2019-01-30T20:32:25.208Z,18.00
2019-01-30T20:35:00.366Z,17.90
2019-01-30T20:37:37.590Z,17.10
2019-01-30T20:40:31.494Z,16.70
2019-01-30T20:43:06.436Z,16.93
2019-01-30T20:45:41.536Z,17.30
2019-01-30T20:48:16.540Z,16.80
2019-01-30T20:50:51.744Z,17.07
2019-01-30T20:53:26.707Z,16.93
2019-01-30T20:56:02.472Z,17.57
2019-01-30T20:58:36.891Z,16.87
2019-01-30T21:01:12.247Z,17.13
2019-01-30T21:03:47.122Z,17.20
2019-01-30T21:06:21.560Z,16.83
2019-01-30T21:08:56.589Z,16.37
2019-01-30T21:11:31.249Z,16.33
2019-01-30T21:14:06.554Z,16.23
2019-01-30T21:16:42.188Z,16.83
2019-01-30T21:19:16.679Z,17.37
2019-01-30T21:21:51.926Z,16.43
2019-01-30T21:24:27.197Z,16.60
2019-01-30T21:27:02.065Z,16.23
2019-01-30T21:29:36.666Z,16.43
2019-01-30T21:32:11.721Z,16.40
2019-01-30T21:34:46.250Z,16.07
2019-01-30T21:37:21.380Z,16.13
2019-01-30T21:39:56.281Z,16.43
2019-01-30T21:42:49.893Z,17.70
2019-01-30T21:45:25.927Z,16.10
2019-01-30T21:48:00.918Z,15.20
2019-01-30T21:50:35.475Z,16.40
2019-01-30T21:53:10.348Z,16.23
2019-01-30T21:55:44.814Z,15.80
2019-01-30T21:58:19.956Z,15.67
2019-01-30T22:00:54.858Z,15.57
2019-01-30T22:03:29.516Z,15.63
2019-01-30T22:06:05.104Z,15.33
2019-01-30T22:08:39.705Z,14.80
2019-01-30T22:13:59.584Z,15.50
2019-01-30T22:16:34.956Z,15.60
2019-01-30T22:19:09.598Z,16.03
2019-01-30T22:21:44.735Z,16.17
2019-01-30T22:24:19.394Z,15.90
2019-01-30T22:26:54.693Z,14.10
2019-01-30T22:29:29.733Z,15.23
2019-01-30T22:32:04.731Z,15.50
2019-01-30T22:34:39.150Z,15.87
2019-01-30T22:37:14.932Z,15.87
2019-01-30T22:39:49.820Z,14.73
2019-01-30T22:42:24.524Z,16.13
2019-01-30T22:45:18.364Z,15.73
2019-01-30T22:47:52.988Z,15.27
2019-01-30T22:50:27.680Z,16.33
2019-01-30T22:53:02.558Z,14.93
2019-01-30T22:55:37.410Z,15.57
2019-01-30T22:58:12.382Z,15.38
2019-01-30T23:01:05.720Z,14.87
2019-01-30T23:04:15.272Z,15.17
2019-01-30T23:07:38.715Z,15.07
2019-01-30T23:10:41.179Z,14.93
2019-01-30T23:13:52.002Z,14.00
2019-01-30T23:17:02.624Z,14.97
2019-01-30T23:20:04.718Z,15.20
2019-01-30T23:23:17.564Z,14.63
2019-01-30T23:26:02.101Z,15.03
2019-01-30T23:29:19.718Z,15.97
2019-01-30T23:32:01.821Z,14.80
2019-01-30T23:35:28.280Z,14.83
2019-01-30T23:38:20.167Z,14.07
2019-01-30T23:41:06.784Z,14.20
2019-01-30T23:44:12.772Z,14.03
2019-01-30T23:47:23.885Z,14.77
2019-01-30T23:50:40.194Z,14.27
2019-01-30T23:53:57.892Z,13.57
2019-01-30T23:57:18.040Z,13.20
